Raleigh County Memorial Airport
KBKW : now visible

Airfield :











YOU CAN JOIN US ON...

 
LOGIN :

Register | Disclaimer

   EN    FR    IT 

 









Legend :    VFR   Marginal VFR   IFR   Intensive IFR   Very Intensive IFR
Visi :
Ceiling :
>= 8 km
>= 3000ft
5 to 8 km
1000 to 3000 ft
1500m to 5 km
500 to 1000 ft
800 to 1500m
200 to 500 ft
< 800m
< 200 ft
Symbols :   Thunderstorms  Fog  Heavy snow  Heavy precipitations  Wind > 20 kt







- Airport Elevation : 2504 ft
- IATA code : BKW


KBKW - Raleigh County Memorial

CURRENT METAR :
  • 210651Z AUTO 18004KT 10SM CLR 22/20 A3009 RMK AO2 SLP142 T02220200

EXPIRED METARs :
  • 210551Z AUTO 18004KT 10SM CLR 23/21 A3009 RMK AO2 SLP147 T02280206 10294 20228 50000
  • 210451Z AUTO 17006KT 10SM CLR 23/21 A3010 RMK AO2 SLP147 T02330206 403220200

TAF KBKW
Valid from the 21 at 06:00 until the 22 at 06:00 UTC


210523Z 2106/2206 VRB03KT P6SM FEW250
FM211600 26005KT P6SM VCTS BKN040CB
FM212300 26004KT P6SM BKN040
FM220500 22004KT P6SM BKN060
KZID FIR / North America



MET'MAP, your aeronautical weather chart ! - Copyright ORBIFLY December 2007 - Disclaimer

ORBIFLY MET'MAP TEAM :

Programming & Development : Alexandra Zaïnal
Concept & Development : Baudouin d'Aumeries
Co-Development & Prog : Marc-Olivier Méhu
Technical & hardware support : Manuel Goepfert

Contact : metmap@orbifly.com




SOURCES & CREDITS :

   NOAA       Earth
Advisory